Time;durP1;ratioP1;P1;durP2;ratioP2;P2;SDS_P1;SDS_P2;PMS_P1;PMS_P2;Temp;Humidity;BMP_temperature;BMP_pressure;BME280_temperature;BME280_humidity;BME280_pressure;Samples;Min_cycle;Max_cycle;Signal;HPM_P1;HPM_P2
2021/06/15 00:00:13;;;;;;;20.23;10.20;;;;;;;24.47;47.09;101386.72;5097866;28;20477;-49
2021/06/15 00:02:40;;;;;;;20.40;10.00;;;;;;;24.44;46.92;101386.75;5084496;28;20484;-51
2021/06/15 00:05:10;;;;;;;24.67;12.57;;;;;;;24.43;47.75;101384.97;5097703;28;20817;-51
2021/06/15 00:07:38;;;;;;;22.30;12.50;;;;;;;24.18;48.29;101385.13;5085328;28;20494;-51
2021/06/15 00:10:07;;;;;;;24.23;12.13;;;;;;;23.85;49.29;101382.63;5096803;28;20495;-49
2021/06/15 00:12:36;;;;;;;22.50;12.03;;;;;;;23.95;49.12;101378.19;5096646;28;20487;-47
2021/06/15 00:15:06;;;;;;;28.33;13.10;;;;;;;24.26;48.18;101380.69;5097798;28;20505;-49
2021/06/15 00:17:34;;;;;;;23.60;11.70;;;;;;;23.85;48.93;101380.84;5096294;28;20483;-50
2021/06/15 00:20:01;;;;;;;23.40;11.70;;;;;;;24.17;48.50;101373.72;5097777;28;20947;-52
2021/06/15 00:22:29;;;;;;;27.13;10.73;;;;;;;24.25;47.62;101377.19;5096596;28;20475;-50
2021/06/15 00:24:56;;;;;;;23.33;11.47;;;;;;;24.39;47.99;101378.84;5097614;28;20461;-51
2021/06/15 00:27:24;;;;;;;23.70;11.03;;;;;;;24.20;48.00;101383.38;5095862;28;20473;-48
2021/06/15 00:29:53;;;;;;;15.80;9.67;;;;;;;24.10;47.97;101380.75;5096807;28;20478;-51
2021/06/15 00:32:21;;;;;;;21.97;11.30;;;;;;;24.18;48.15;101380.72;5096311;28;20476;-50
2021/06/15 00:34:48;;;;;;;22.43;10.77;;;;;;;23.68;49.46;101385.31;5097482;28;20459;-49
2021/06/15 00:37:16;;;;;;;23.77;10.27;;;;;;;23.87;48.88;101387.00;5095765;28;20481;-49
2021/06/15 00:39:44;;;;;;;23.37;10.97;;;;;;;24.21;47.97;101379.84;5097368;28;20492;-49
2021/06/15 00:42:11;;;;;;;19.17;9.87;;;;;;;24.24;47.87;101382.44;5096044;28;20821;-50
2021/06/15 00:44:39;;;;;;;20.67;10.43;;;;;;;24.47;47.17;101376.16;5097267;28;20460;-47
2021/06/15 00:47:08;;;;;;;20.77;10.10;;;;;;;24.36;47.21;101379.75;5095769;28;20501;-51
2021/06/15 00:49:37;;;;;;;22.93;10.13;;;;;;;24.30;47.56;101384.19;5096597;28;20511;-48
2021/06/15 00:52:05;;;;;;;26.30;9.90;;;;;;;24.37;47.21;101384.16;5095951;28;20453;-45
2021/06/15 00:54:33;;;;;;;20.77;10.53;;;;;;;24.12;47.78;101384.28;5096993;28;20459;-52
2021/06/15 00:57:01;;;;;;;16.80;9.50;;;;;;;23.68;49.22;101398.47;5095874;28;20449;-50
2021/06/15 00:59:28;;;;;;;16.50;8.57;;;;;;;23.45;49.28;101395.03;5097037;28;20476;-48
2021/06/15 01:01:56;;;;;;;20.67;8.77;;;;;;;23.36;49.46;101383.59;5095877;28;20455;-51
2021/06/15 01:04:25;;;;;;;24.00;9.40;;;;;;;23.50;49.34;101400.28;5096865;28;20496;-53
2021/06/15 01:06:59;;;;;;;19.83;9.60;;;;;;;23.62;49.24;101401.13;5094817;28;20504;-49
2021/06/15 01:09:31;;;;;;;19.97;8.77;;;;;;;23.62;48.81;101402.00;5096360;28;20577;-49
2021/06/15 01:12:04;;;;;;;22.33;9.53;;;;;;;23.67;48.49;101392.31;5095358;28;20462;-50
2021/06/15 01:15:02;;;;;;;20.90;9.27;;;;;;;23.53;48.86;101389.72;5096959;28;20454;-49
2021/06/15 01:17:34;;;;;;;16.93;9.03;;;;;;;23.55;48.91;101390.63;5073536;28;20479;-51
2021/06/15 01:20:11;;;;;;;24.17;9.10;;;;;;;23.66;48.45;101387.06;5076418;28;20488;-52
2021/06/15 01:23:16;;;;;;;16.90;9.10;;;;;;;23.94;47.90;101381.72;5075029;28;20794;-55
2021/06/15 01:26:11;;;;;;;25.00;8.90;;;;;;;23.38;49.34;101385.34;4994117;28;20466;-53
2021/06/15 01:28:43;;;;;;;25.23;7.97;;;;;;;23.30;49.29;101376.56;5075125;28;20824;-53
2021/06/15 01:31:14;;;;;;;18.37;7.90;;;;;;;23.66;48.92;101377.41;5076075;28;20461;-55
2021/06/15 01:33:45;;;;;;;43.23;24.07;;;;;;;23.27;50.07;101390.63;5074852;28;20565;-49
2021/06/15 01:36:15;;;;;;;21.63;8.30;;;;;;;23.75;47.93;101387.03;5075824;28;20472;-52
2021/06/15 01:38:48;;;;;;;20.00;8.67;;;;;;;23.76;48.00;101391.41;5074510;28;20938;-55
2021/06/15 01:41:17;;;;;;;25.50;9.20;;;;;;;23.73;48.10;101387.03;5079390;28;20462;-53
2021/06/15 01:43:50;;;;;;;24.33;11.00;;;;;;;23.31;49.31;101376.63;5074097;28;20479;-51
2021/06/15 01:46:20;;;;;;;23.97;8.67;;;;;;;23.52;48.58;101384.47;5075181;28;20456;-49
2021/06/15 01:48:52;;;;;;;22.20;8.70;;;;;;;23.92;47.44;101388.72;5074213;28;20492;-48
2021/06/15 01:51:22;;;;;;;25.87;13.33;;;;;;;24.00;47.40;101387.81;5075909;28;20460;-51
2021/06/15 01:53:53;;;;;;;33.40;14.93;;;;;;;23.38;49.22;101392.41;5074523;28;20784;-50
2021/06/15 01:56:21;;;;;;;18.67;10.00;;;;;;;23.39;48.89;101389.78;5075554;28;20456;-50
2021/06/15 01:58:50;;;;;;;24.07;9.77;;;;;;;23.52;49.02;101400.28;5073812;28;20477;-51
2021/06/15 02:01:19;;;;;;;22.17;10.00;;;;;;;23.36;49.42;101402.03;5074996;28;20739;-51
2021/06/15 02:03:47;;;;;;;22.97;10.37;;;;;;;23.19;49.71;101409.03;5074299;28;20776;-48
2021/06/15 02:06:19;;;;;;;28.30;10.43;;;;;;;23.17;49.86;101420.47;5075136;28;20901;-49
2021/06/15 02:08:48;;;;;;;27.37;11.80;;;;;;;23.15;49.74;101423.09;5073914;28;20489;-52
2021/06/15 02:11:17;;;;;;;22.07;9.63;;;;;;;22.89;50.40;101425.69;5075374;28;20638;-50
2021/06/15 02:13:47;;;;;;;22.60;8.53;;;;;;;23.03;49.87;101430.97;5056928;28;20485;-52
2021/06/15 02:16:16;;;;;;;22.93;9.70;;;;;;;22.70;51.15;101430.94;5075406;28;20482;-47
2021/06/15 02:18:49;;;;;;;17.03;8.00;;;;;;;22.75;50.99;101434.47;5071899;28;20490;-49
2021/06/15 02:21:17;;;;;;;21.77;8.40;;;;;;;22.55;51.35;101437.03;5074645;28;20451;-51
2021/06/15 02:23:46;;;;;;;23.73;9.27;;;;;;;22.31;51.68;101441.31;5073418;28;20479;-49
2021/06/15 02:26:16;;;;;;;23.90;10.33;;;;;;;22.49;50.76;101437.88;5074985;28;20454;-48
2021/06/15 02:28:45;;;;;;;23.07;8.53;;;;;;;22.39;51.35;101441.34;5073664;28;20501;-51
2021/06/15 02:31:17;;;;;;;34.60;15.60;;;;;;;22.56;50.28;101430.91;5075246;28;20457;-50
2021/06/15 02:33:47;;;;;;;28.83;9.70;;;;;;;22.04;50.65;101439.47;5074061;28;20485;-49
2021/06/15 02:36:19;;;;;;;17.07;5.97;;;;;;;22.44;49.63;101442.22;5074792;28;20471;-51
2021/06/15 02:38:49;;;;;;;14.70;6.30;;;;;;;22.36;50.08;101451.84;5073667;28;20489;-48
2021/06/15 02:41:19;;;;;;;18.07;6.63;;;;;;;22.54;49.82;101448.44;5074423;28;20457;-49
2021/06/15 02:43:49;;;;;;;22.13;6.87;;;;;;;22.59;48.96;101453.69;5074164;28;20486;-52
2021/06/15 02:46:18;;;;;;;21.43;7.50;;;;;;;22.28;50.16;101453.56;5074805;28;20463;-51
2021/06/15 02:48:51;;;;;;;14.63;5.87;;;;;;;22.27;49.66;101452.69;5074011;28;20528;-49
2021/06/15 02:51:19;;;;;;;15.60;5.30;;;;;;;22.22;49.33;101452.69;5075132;28;20761;-50
2021/06/15 02:53:53;;;;;;;14.60;4.97;;;;;;;22.24;48.87;101466.69;5073669;28;20484;-54
2021/06/15 02:56:24;;;;;;;22.40;5.60;;;;;;;22.33;48.49;101471.13;5074836;28;20465;-51
2021/06/15 02:58:51;;;;;;;21.03;5.37;;;;;;;22.32;48.82;101471.09;5073116;28;20485;-50
2021/06/15 03:01:20;;;;;;;10.20;3.90;;;;;;;22.53;47.35;101470.34;5074640;28;20458;-50
2021/06/15 03:03:48;;;;;;;13.53;4.13;;;;;;;22.29;47.96;101471.09;5073783;28;20481;-51
2021/06/15 03:06:15;;;;;;;16.90;4.70;;;;;;;22.11;48.79;101476.25;5074776;28;20462;-52
2021/06/15 03:08:43;;;;;;;17.30;4.27;;;;;;;21.93;48.67;101482.31;5073361;28;20498;-48
2021/06/15 03:11:11;;;;;;;9.70;3.63;;;;;;;22.19;48.31;101473.69;5074846;28;20771;-48
2021/06/15 03:13:41;;;;;;;15.80;4.80;;;;;;;22.19;48.23;101486.81;5073454;28;20810;-50
2021/06/15 03:16:11;;;;;;;22.73;4.60;;;;;;;21.85;48.77;101484.00;5073851;28;20901;-49
2021/06/15 03:18:42;;;;;;;29.87;10.87;;;;;;;22.09;48.44;101477.13;5073254;28;20486;-48
2021/06/15 03:21:11;;;;;;;16.93;4.70;;;;;;;22.08;47.89;101483.25;5075007;28;20450;-50
2021/06/15 03:23:47;;;;;;;35.97;17.07;;;;;;;22.03;48.71;101490.22;5073344;28;20785;-49
2021/06/15 03:26:17;;;;;;;19.50;4.90;;;;;;;22.21;47.67;101485.06;5074363;28;20455;-49
2021/06/15 03:28:49;;;;;;;10.73;3.80;;;;;;;22.06;47.79;101493.78;5073195;28;20799;-49
2021/06/15 03:31:17;;;;;;;21.87;5.70;;;;;;;21.69;49.09;101491.78;5074633;28;20906;-48
2021/06/15 03:33:49;;;;;;;15.83;4.37;;;;;;;21.91;48.26;101497.19;5063038;28;20773;-51
2021/06/15 03:36:17;;;;;;;18.93;4.73;;;;;;;22.08;47.98;101499.91;5078018;28;20509;-50
2021/06/15 03:38:46;;;;;;;14.47;3.77;;;;;;;22.09;47.81;101496.41;5067553;28;20953;-49
2021/06/15 03:41:15;;;;;;;10.90;4.50;;;;;;;22.07;48.15;101492.91;5078147;28;20462;-54
2021/06/15 03:43:47;;;;;;;10.93;4.87;;;;;;;22.04;48.25;101492.00;5065234;28;20481;-47
2021/06/15 03:46:15;;;;;;;10.63;3.80;;;;;;;22.31;47.30;101490.38;5077864;28;20457;-51
2021/06/15 03:48:45;;;;;;;22.27;6.03;;;;;;;22.19;47.82;101497.31;5082104;28;20989;-52
2021/06/15 03:51:18;;;;;;;15.07;4.53;;;;;;;22.01;47.69;101484.97;5098330;28;20457;-51
2021/06/15 03:53:46;;;;;;;10.17;3.90;;;;;;;22.37;47.01;101487.78;5093286;28;20477;-50
2021/06/15 03:56:14;;;;;;;12.60;3.90;;;;;;;22.15;47.42;101490.28;5098087;28;20462;-48
2021/06/15 03:58:43;;;;;;;16.83;5.17;;;;;;;22.19;47.70;101492.06;5085439;28;20791;-52
2021/06/15 04:01:13;;;;;;;15.80;3.57;;;;;;;22.38;47.20;101506.19;5098144;28;20458;-48
2021/06/15 04:03:41;;;;;;;12.83;4.17;;;;;;;22.41;47.27;101513.22;5096812;28;20484;-49
2021/06/15 04:06:10;;;;;;;18.53;4.20;;;;;;;21.94;47.87;101518.19;5097687;28;20856;-53
2021/06/15 04:08:40;;;;;;;13.83;3.93;;;;;;;22.09;47.97;101512.16;5096639;28;20488;-52
2021/06/15 04:11:09;;;;;;;20.27;4.00;;;;;;;22.15;47.68;101511.31;5098096;28;20457;-51
2021/06/15 04:13:37;;;;;;;12.37;3.20;;;;;;;22.06;47.77;101527.03;5079096;28;20488;-50
2021/06/15 04:16:05;;;;;;;12.53;3.30;;;;;;;21.84;48.03;101534.78;5097633;28;20453;-48
2021/06/15 04:18:36;;;;;;;13.40;3.70;;;;;;;21.77;48.31;101541.72;5084645;28;20481;-49
2021/06/15 04:21:06;;;;;;;15.00;3.97;;;;;;;22.12;47.55;101537.59;5097946;28;20460;-49
2021/06/15 04:23:40;;;;;;;16.30;4.50;;;;;;;21.91;48.39;101533.97;5090661;28;20479;-48
2021/06/15 04:26:08;;;;;;;12.23;3.50;;;;;;;21.80;48.78;101546.13;5097502;28;20768;-49
2021/06/15 04:28:36;;;;;;;19.30;3.70;;;;;;;21.77;48.35;101546.09;5092738;28;20489;-52
2021/06/15 04:31:04;;;;;;;8.40;3.73;;;;;;;21.93;48.35;101563.72;5097248;28;20464;-48
2021/06/15 04:33:33;;;;;;;17.90;4.30;;;;;;;21.73;47.85;101554.81;5084909;28;20486;-50
2021/06/15 04:36:03;;;;;;;14.07;4.10;;;;;;;21.97;47.76;101560.25;5097102;28;20489;-49
2021/06/15 04:38:35;;;;;;;10.53;3.80;;;;;;;21.73;48.10;101560.06;5096278;28;20486;-50
2021/06/15 04:41:09;;;;;;;16.50;4.00;;;;;;;21.75;48.16;101560.97;5097614;28;20466;-47
2021/06/15 04:43:38;;;;;;;13.30;3.97;;;;;;;22.21;47.26;101552.53;5086099;28;20487;-50
2021/06/15 04:46:09;;;;;;;16.90;3.77;;;;;;;21.76;47.87;101557.47;5096432;28;20455;-50
2021/06/15 04:48:37;;;;;;;16.43;3.80;;;;;;;21.80;47.62;101561.88;5095001;28;20480;-50
2021/06/15 04:51:06;;;;;;;11.70;3.53;;;;;;;22.30;46.55;101563.06;5097143;28;20776;-50
2021/06/15 04:53:40;;;;;;;16.77;3.90;;;;;;;21.96;47.14;101566.34;5095198;28;20485;-47
2021/06/15 04:56:10;;;;;;;13.87;4.03;;;;;;;22.14;46.95;101559.47;5096721;28;20463;-49
2021/06/15 04:58:38;;;;;;;17.10;4.27;;;;;;;21.79;47.58;101554.88;5095578;28;20483;-52
2021/06/15 05:01:06;;;;;;;11.63;3.80;;;;;;;22.13;46.78;101555.09;5097083;28;20456;-49
2021/06/15 05:03:34;;;;;;;11.90;3.50;;;;;;;21.74;47.70;101553.97;5084920;28;20944;-50
2021/06/15 05:06:04;;;;;;;15.10;3.40;;;;;;;22.21;46.70;101548.13;5096601;28;20464;-50
2021/06/15 05:08:33;;;;;;;17.03;4.17;;;;;;;22.01;46.76;101541.88;5076923;28;20485;-49
2021/06/15 05:11:03;;;;;;;10.80;4.00;;;;;;;22.10;46.95;101545.44;5096547;28;20455;-48
2021/06/15 05:13:33;;;;;;;18.63;5.70;;;;;;;22.18;46.40;101548.13;5083335;28;20485;-52
2021/06/15 05:16:02;;;;;;;16.80;7.70;;;;;;;21.82;47.47;101555.78;5096455;28;20463;-49
2021/06/15 05:18:31;;;;;;;17.67;4.10;;;;;;;21.83;47.74;101556.63;5095267;28;20482;-50
2021/06/15 05:20:59;;;;;;;10.20;3.43;;;;;;;22.05;46.36;101555.03;5096460;28;20453;-49
2021/06/15 05:23:32;;;;;;;13.67;4.30;;;;;;;21.97;47.07;101565.53;5094918;28;20488;-50
2021/06/15 05:26:00;;;;;;;16.40;3.77;;;;;;;21.83;46.94;101568.03;5095822;28;20464;-49
2021/06/15 05:28:28;;;;;;;14.43;4.17;;;;;;;22.12;46.37;101566.47;5095047;28;20490;-52
2021/06/15 05:30:57;;;;;;;11.20;4.00;;;;;;;22.02;46.13;101564.66;5096286;28;20490;-49
2021/06/15 05:33:24;;;;;;;14.73;3.90;;;;;;;21.54;47.79;101575.63;5094999;28;20481;-50
2021/06/15 05:35:52;;;;;;;16.20;4.50;;;;;;;22.05;45.59;101583.06;5095842;28;20457;-50
2021/06/15 05:38:20;;;;;;;16.87;3.93;;;;;;;21.90;45.55;101583.84;5094940;28;20483;-51
2021/06/15 05:40:48;;;;;;;14.17;3.40;;;;;;;22.03;46.00;101590.03;5095877;28;20454;-49
2021/06/15 05:43:16;;;;;;;14.70;4.30;;;;;;;22.51;45.41;101593.00;5094281;28;20550;-53
2021/06/15 05:45:44;;;;;;;16.63;3.77;;;;;;;22.64;45.16;101588.69;5095927;28;20532;-50
2021/06/15 05:48:14;;;;;;;12.03;3.90;;;;;;;22.38;45.46;101578.91;5094710;28;20824;-52
2021/06/15 05:50:42;;;;;;;12.93;3.97;;;;;;;22.41;45.46;101586.81;5095824;28;20928;-50
2021/06/15 05:53:10;;;;;;;19.17;6.50;;;;;;;22.26;46.51;101587.59;5094483;28;20477;-50
2021/06/15 05:55:37;;;;;;;20.07;6.23;;;;;;;22.47;45.71;101593.84;5095583;28;20899;-54
2021/06/15 05:58:05;;;;;;;19.73;6.20;;;;;;;22.88;45.02;101598.47;5092880;28;20484;-49
2021/06/15 06:00:33;;;;;;;10.53;3.23;;;;;;;22.58;43.88;101591.28;5095916;28;20488;-48
2021/06/15 06:03:00;;;;;;;17.73;3.60;;;;;;;22.35;45.96;101597.28;5094204;28;20539;-48
2021/06/15 06:08:26;;;;;;;14.07;3.40;;;;;;;22.16;45.29;101591.91;5032260;28;20493;-49
2021/06/15 06:10:54;;;;;;;11.17;3.57;;;;;;;22.30;44.38;101601.63;5080938;28;20481;-51
2021/06/15 06:13:23;;;;;;;10.03;3.00;;;;;;;22.91;43.55;101610.72;5094113;28;21000;-50
2021/06/15 06:15:51;;;;;;;11.60;3.17;;;;;;;21.93;44.57;101605.75;5095396;28;20464;-47
2021/06/15 06:18:18;;;;;;;10.90;2.60;;;;;;;22.22;43.31;101607.72;5093739;28;20482;-51
2021/06/15 06:20:49;;;;;;;15.33;3.17;;;;;;;22.51;43.39;101619.28;5095488;28;20934;-48
2021/06/15 06:23:18;;;;;;;14.33;3.47;;;;;;;22.88;42.82;101615.97;5094038;28;20486;-52
2021/06/15 06:25:46;;;;;;;9.90;2.80;;;;;;;22.47;43.94;101618.41;5095107;28;20453;-50
2021/06/15 06:28:13;;;;;;;14.20;3.67;;;;;;;22.97;43.82;101623.88;5085199;28;20860;-50
2021/06/15 06:30:41;;;;;;;13.10;3.37;;;;;;;23.59;41.74;101612.69;5095380;28;20478;-48
2021/06/15 06:33:08;;;;;;;13.90;3.53;;;;;;;23.15;42.85;101616.94;5088104;28;20485;-48
2021/06/15 06:35:36;;;;;;;9.90;2.70;;;;;;;23.24;43.51;101616.09;5094418;28;20490;-50
2021/06/15 06:38:05;;;;;;;16.83;3.13;;;;;;;22.96;42.91;101622.13;5093947;28;20786;-50
2021/06/15 06:40:33;;;;;;;12.40;3.33;;;;;;;22.79;43.70;101635.22;5095213;28;20480;-49
2021/06/15 06:43:01;;;;;;;9.80;3.40;;;;;;;22.92;43.87;101631.78;5083217;28;20479;-49
2021/06/15 06:45:29;;;;;;;11.03;3.00;;;;;;;23.22;42.17;101633.63;5094409;28;20491;-48
2021/06/15 06:47:57;;;;;;;14.43;2.70;;;;;;;23.48;41.10;101641.59;5091408;28;20485;-49
2021/06/15 06:50:24;;;;;;;13.43;2.57;;;;;;;23.26;41.37;101640.66;5095149;28;20538;-48
2021/06/15 06:52:52;;;;;;;11.97;2.47;;;;;;;23.17;40.66;101655.53;5089546;28;20474;-51
2021/06/15 06:55:21;;;;;;;14.60;2.40;;;;;;;23.15;41.78;101649.41;5094901;28;20473;-52
2021/06/15 06:57:49;;;;;;;14.93;2.60;;;;;;;23.39;41.33;101650.41;5089984;28;20480;-50
2021/06/15 07:00:17;;;;;;;11.83;2.80;;;;;;;23.02;41.74;101661.63;5095137;28;20471;-49
2021/06/15 07:02:47;;;;;;;14.30;2.80;;;;;;;23.17;41.30;101659.94;5082514;28;20560;-50
2021/06/15 07:05:15;;;;;;;9.83;2.43;;;;;;;23.28;41.97;101666.09;5094375;28;20459;-47
2021/06/15 07:07:43;;;;;;;12.60;2.30;;;;;;;23.14;40.82;101665.19;5083247;28;20484;-50
2021/06/15 07:10:12;;;;;;;12.20;2.67;;;;;;;23.19;41.09;101672.22;5096515;28;20489;-48
2021/06/15 07:12:41;;;;;;;9.80;3.23;;;;;;;22.85;41.08;101665.94;5087318;28;21158;-52
2021/06/15 07:15:09;;;;;;;9.37;3.00;;;;;;;23.54;39.99;101662.69;5098709;28;20463;-51
2021/06/15 07:17:37;;;;;;;9.10;2.77;;;;;;;23.32;40.61;101656.50;5086464;28;20536;-51
2021/06/15 07:20:06;;;;;;;10.50;2.27;;;;;;;23.55;39.61;101664.47;5098737;28;20821;-49
2021/06/15 07:22:34;;;;;;;8.43;2.40;;;;;;;23.58;39.12;101663.59;5092123;28;20492;-49
2021/06/15 07:25:03;;;;;;;7.57;2.00;;;;;;;23.72;38.59;101655.69;5098874;28;20464;-49
2021/06/15 07:27:30;;;;;;;10.13;1.93;;;;;;;23.78;38.01;101657.47;5090669;28;20797;-50
2021/06/15 07:29:59;;;;;;;10.27;2.17;;;;;;;23.70;39.64;101655.69;5098054;28;20482;-50
2021/06/15 07:32:27;;;;;;;10.50;2.33;;;;;;;23.91;38.89;101655.72;5097498;28;20473;-52
2021/06/15 07:34:55;;;;;;;12.63;2.60;;;;;;;23.38;39.75;101669.66;5098743;28;20454;-52
2021/06/15 07:37:22;;;;;;;14.43;2.70;;;;;;;23.82;39.86;101665.38;5096824;28;20486;-50
2021/06/15 07:39:50;;;;;;;11.33;2.40;;;;;;;24.35;38.31;101661.88;5098633;28;20485;-54
2021/06/15 07:42:18;;;;;;;6.87;1.70;;;;;;;23.48;38.51;101652.13;5087252;28;20484;-48
2021/06/15 07:44:46;;;;;;;7.67;2.43;;;;;;;23.52;38.67;101658.31;5097736;28;20483;-48
2021/06/15 07:47:15;;;;;;;10.27;2.43;;;;;;;23.62;37.47;101657.44;5096114;28;20470;-57
2021/06/15 07:49:43;;;;;;;6.13;2.30;;;;;;;23.69;37.57;101656.56;5097819;28;20490;-50
2021/06/15 07:52:14;;;;;;;10.83;2.50;;;;;;;24.03;37.19;101660.13;5096148;28;20488;-49
2021/06/15 07:54:42;;;;;;;15.10;2.53;;;;;;;23.88;37.99;101653.94;5098209;28;20880;-55
2021/06/15 07:57:10;;;;;;;7.77;2.27;;;;;;;24.06;37.28;101663.63;5096773;28;20470;-55
2021/06/15 07:59:38;;;;;;;9.80;3.60;;;;;;;23.78;37.93;101666.25;5098051;28;20473;-50
2021/06/15 08:02:05;;;;;;;6.40;1.83;;;;;;;23.73;37.01;101662.72;5088364;28;20838;-51
2021/06/15 08:04:34;;;;;;;5.60;1.77;;;;;;;24.01;36.61;101660.09;5098126;28;20513;-51
2021/06/15 08:07:02;;;;;;;14.30;4.10;;;;;;;24.07;36.92;101661.88;5096055;28;20463;-49
2021/06/15 08:09:30;;;;;;;10.30;2.90;;;;;;;23.83;36.99;101663.59;5097744;28;20479;-53
2021/06/15 08:11:57;;;;;;;7.77;2.37;;;;;;;23.93;37.48;101673.28;5096705;28;20484;-54
2021/06/15 08:14:25;;;;;;;12.33;3.27;;;;;;;23.97;36.96;101667.13;5097931;28;20565;-50
2021/06/15 08:16:55;;;;;;;12.43;5.40;;;;;;;23.60;37.66;101662.69;5086313;28;20777;-50
2021/06/15 08:19:23;;;;;;;14.93;2.13;;;;;;;24.09;37.17;101671.56;5096641;28;20544;-54
2021/06/15 08:21:52;;;;;;;8.57;2.20;;;;;;;23.66;36.43;101664.47;5095799;28;20777;-53
2021/06/15 08:24:20;;;;;;;12.40;3.30;;;;;;;23.50;37.81;101671.47;5097095;28;20480;-51
2021/06/15 08:26:52;;;;;;;6.70;2.30;;;;;;;23.43;38.74;101669.72;5097684;28;20481;-53
2021/06/15 08:29:24;;;;;;;7.13;2.37;;;;;;;24.18;37.24;101667.16;5096619;28;20468;-52
2021/06/15 08:31:52;;;;;;;7.03;1.90;;;;;;;24.77;35.81;101664.41;5086752;28;20499;-52
2021/06/15 08:34:20;;;;;;;9.43;2.50;;;;;;;24.55;36.76;101667.09;5096561;28;20519;-51
2021/06/15 08:36:49;;;;;;;14.00;2.63;;;;;;;24.62;37.25;101667.97;5097060;28;20459;-53
2021/06/15 08:39:18;;;;;;;9.47;2.23;;;;;;;25.21;36.43;101655.44;5076737;28;20470;-49
2021/06/15 08:41:46;;;;;;;7.50;2.40;;;;;;;24.25;38.65;101651.31;5077469;28;20456;-50
2021/06/15 08:44:18;;;;;;;11.07;2.23;;;;;;;24.34;37.13;101658.34;5095798;28;20467;-48
2021/06/15 08:46:46;;;;;;;11.40;3.00;;;;;;;24.54;37.34;101666.22;5096803;28;20771;-50
2021/06/15 08:49:21;;;;;;;10.80;2.33;;;;;;;24.71;36.78;101661.78;5076178;28;20998;-53
2021/06/15 08:51:51;;;;;;;10.80;2.57;;;;;;;24.78;36.49;101661.78;5072355;28;20486;-50
2021/06/15 08:54:20;;;;;;;10.27;2.20;;;;;;;24.83;35.54;101656.50;5076737;28;20455;-51
2021/06/15 08:56:55;;;;;;;12.33;2.00;;;;;;;25.33;33.76;101656.28;5076698;28;20460;-49
2021/06/15 08:59:25;;;;;;;8.83;2.90;;;;;;;25.13;34.69;101667.81;5096548;28;20470;-50
2021/06/15 09:01:55;;;;;;;11.50;2.30;;;;;;;25.37;34.02;101665.06;5081555;28;20790;-53
2021/06/15 09:04:23;;;;;;;9.77;2.00;;;;;;;25.13;34.70;101654.63;5096411;28;20483;-54
2021/06/15 09:06:55;;;;;;;10.70;2.20;;;;;;;25.29;35.10;101658.06;5095155;28;20900;-52
2021/06/15 09:09:24;;;;;;;6.67;1.97;;;;;;;24.77;36.45;101665.25;5096614;28;20483;-51
2021/06/15 09:11:54;;;;;;;7.27;1.90;;;;;;;24.48;36.46;101674.16;5084616;28;20485;-52
2021/06/15 09:14:40;;;;;;;6.53;2.30;;;;;;;24.35;37.45;101667.16;5079785;28;20486;-52
2021/06/15 09:17:10;;;;;;;26.00;13.20;;;;;;;24.26;35.92;101668.91;5083112;28;22413;-52
2021/06/15 09:19:39;;;;;;;11.53;4.97;;;;;;;24.31;35.24;101671.56;5082248;28;20757;-49
2021/06/15 09:22:08;;;;;;;8.70;1.90;;;;;;;24.89;33.64;101664.41;5091891;28;20815;-50
2021/06/15 09:24:46;;;;;;;9.83;2.03;;;;;;;25.02;34.10;101667.00;5095320;28;20455;-53
2021/06/15 09:27:13;;;;;;;14.00;2.60;;;;;;;24.87;33.73;101676.69;5094707;28;20478;-49
2021/06/15 09:29:43;;;;;;;16.70;7.60;;;;;;;24.58;34.49;101674.13;5096628;28;20478;-48
2021/06/15 09:32:15;;;;;;;10.00;2.67;;;;;;;24.37;34.81;101674.19;5081271;28;22007;-51
2021/06/15 09:34:53;;;;;;;8.03;3.07;;;;;;;24.60;34.57;101675.88;5082625;28;20455;-54
2021/06/15 09:37:30;;;;;;;37.00;19.73;;;;;;;24.96;34.04;101664.38;5079614;28;20493;-53
2021/06/15 09:39:59;;;;;;;11.50;4.57;;;;;;;25.32;34.27;101668.59;5084863;28;20482;-51
2021/06/15 09:42:27;;;;;;;8.30;2.00;;;;;;;24.99;33.42;101664.34;5092969;28;20483;-51
2021/06/15 09:44:54;;;;;;;8.73;1.77;;;;;;;25.69;32.27;101662.22;5096262;28;20457;-50
2021/06/15 09:47:24;;;;;;;9.37;2.50;;;;;;;25.85;32.04;101662.09;5079367;28;21418;-50
2021/06/15 09:49:54;;;;;;;7.33;2.43;;;;;;;25.47;33.06;101667.63;5083374;28;20481;-52
2021/06/15 09:52:25;;;;;;;7.90;2.23;;;;;;;24.88;34.65;101667.94;5080194;28;20782;-48
2021/06/15 09:54:54;;;;;;;9.13;1.77;;;;;;;25.02;33.66;101664.34;5083693;28;20464;-54
2021/06/15 09:57:25;;;;;;;11.83;2.80;;;;;;;25.25;32.89;101665.97;5081703;28;20480;-49
2021/06/15 10:00:09;;;;;;;11.00;1.87;;;;;;;25.11;32.01;101669.56;5094848;28;20493;-52
2021/06/15 10:02:49;;;;;;;5.67;1.60;;;;;;;25.77;32.00;101666.59;5084546;28;20481;-49
2021/06/15 10:05:26;;;;;;;8.17;2.80;;;;;;;26.38;30.84;101666.94;5095389;28;20457;-50
2021/06/15 10:07:54;;;;;;;8.83;1.57;;;;;;;26.61;29.48;101658.75;5094229;28;20477;-50
2021/06/15 10:10:23;;;;;;;9.33;1.70;;;;;;;26.41;31.17;101669.56;5095819;28;20812;-50
2021/06/15 10:12:53;;;;;;;7.40;2.00;;;;;;;25.87;31.35;101676.19;5082601;28;20955;-52
2021/06/15 10:15:21;;;;;;;6.47;2.03;;;;;;;25.48;32.70;101674.66;5095283;28;20780;-51
2021/06/15 10:17:50;;;;;;;9.07;1.97;;;;;;;26.46;31.09;101673.06;5094481;28;20484;-49
2021/06/15 10:20:20;;;;;;;9.50;2.07;;;;;;;25.73;32.13;101669.22;5095068;28;20487;-49
2021/06/15 10:22:48;;;;;;;11.07;2.10;;;;;;;26.80;30.70;101661.19;5082933;28;20484;-47
2021/06/15 10:25:17;;;;;;;9.27;2.50;;;;;;;26.47;31.65;101666.88;5094820;28;20457;-51
2021/06/15 10:27:45;;;;;;;5.43;1.60;;;;;;;26.62;30.38;101665.81;5082652;28;20555;-48
2021/06/15 10:30:15;;;;;;;8.70;3.27;;;;;;;26.10;31.85;101661.91;5094849;28;20481;-53
2021/06/15 10:32:51;;;;;;;9.70;1.80;;;;;;;25.38;31.97;101657.09;5077341;28;20478;-51
2021/06/15 10:35:34;;;;;;;9.83;3.93;;;;;;;25.64;32.51;101669.31;5095142;28;20482;-49
2021/06/15 10:38:02;;;;;;;6.03;1.50;;;;;;;26.53;30.54;101664.16;5082515;28;20493;-52
2021/06/15 10:40:41;;;;;;;10.10;2.10;;;;;;;26.02;31.97;101664.59;5095105;28;20481;-50
2021/06/15 10:43:19;;;;;;;8.77;2.43;;;;;;;25.97;33.20;101663.75;5090268;28;20484;-49
2021/06/15 10:45:51;;;;;;;8.33;2.23;;;;;;;25.72;32.74;101654.28;5094686;28;20548;-52
2021/06/15 10:48:34;;;;;;;9.63;2.77;;;;;;;26.31;30.10;101655.56;5078123;28;20493;-51
2021/06/15 10:51:03;;;;;;;5.90;1.50;;;;;;;26.93;30.11;101664.59;5095390;28;20456;-51
2021/06/15 10:53:36;;;;;;;7.07;2.60;;;;;;;26.54;30.95;101657.97;5081742;28;20484;-50
2021/06/15 10:56:06;;;;;;;5.30;1.50;;;;;;;27.09;30.08;101654.69;5094549;28;20516;-54
2021/06/15 10:58:56;;;;;;;6.83;1.97;;;;;;;27.11;29.80;101657.31;5081705;28;20485;-51
2021/06/15 11:01:27;;;;;;;8.90;1.40;;;;;;;26.75;30.66;101655.94;5095160;28;20465;-51
2021/06/15 11:03:56;;;;;;;7.83;2.00;;;;;;;26.36;30.61;101652.88;5082772;28;20521;-51
2021/06/15 11:06:39;;;;;;;10.03;3.40;;;;;;;26.18;32.49;101652.13;5094779;28;20457;-51
2021/06/15 11:09:22;;;;;;;11.03;2.63;;;;;;;26.45;31.28;101652.75;5093371;28;20481;-49
2021/06/15 11:12:16;;;;;;;7.83;2.57;;;;;;;25.95;32.76;101653.19;5085469;28;20458;-49
2021/06/15 11:15:07;;;;;;;8.97;2.53;;;;;;;26.31;32.16;101654.69;5095052;28;20470;-52
2021/06/15 11:17:47;;;;;;;10.13;2.43;;;;;;;26.32;32.13;101656.44;5092338;28;20477;-51
2021/06/15 11:20:25;;;;;;;7.83;1.97;;;;;;;25.80;32.51;101659.50;5094813;28;20773;-51
2021/06/15 11:23:23;;;;;;;9.00;2.77;;;;;;;26.05;33.20;101653.13;5093465;28;20909;-51
2021/06/15 11:25:52;;;;;;;6.60;2.20;;;;;;;26.47;33.32;101650.09;5094558;28;20454;-48
2021/06/15 11:28:39;;;;;;;11.73;2.63;;;;;;;26.63;31.37;101645.50;5079294;28;20492;-53
2021/06/15 11:31:32;;;;;;;6.60;1.97;;;;;;;26.10;32.41;101651.31;5094891;28;20503;-51
2021/06/15 11:34:15;;;;;;;11.00;3.13;;;;;;;26.36;32.56;101651.06;5081236;28;20497;-49
2021/06/15 11:36:58;;;;;;;7.77;2.00;;;;;;;27.09;29.70;101655.56;5090388;28;20514;-54